Time;durP1;ratioP1;P1;durP2;ratioP2;P2;SDS_P1;SDS_P2;PMS_P1;PMS_P2;Temp;Humidity;BMP_temperature;BMP_pressure;BME280_temperature;BME280_humidity;BME280_pressure;Samples;Min_cycle;Max_cycle;Signal;HPM_P1;HPM_P2
2023/06/01 00:02:16;;;;;;;;;7.00;6.33;;;;;22.08;42.47;101064.66;4997426;28;45583;-53
2023/06/01 00:04:41;;;;;;;;;10.00;9.00;;;;;22.11;42.51;101065.31;4997160;28;45568;-53
2023/06/01 00:07:08;;;;;;;;;9.67;8.33;;;;;22.09;42.73;101063.72;4997119;28;45570;-55
2023/06/01 00:09:33;;;;;;;;;9.00;8.00;;;;;22.08;43.20;101076.22;4997033;28;46179;-54
2023/06/01 00:11:58;;;;;;;;;8.50;7.25;;;;;21.98;43.57;101069.88;4996981;28;45491;-53
2023/06/01 00:14:24;;;;;;;;;9.67;8.33;;;;;21.87;43.66;101054.63;4996868;28;53394;-56
2023/06/01 00:16:51;;;;;;;;;3.67;2.33;;;;;21.80;44.23;101051.53;4997216;28;45476;-54
2023/06/01 00:19:17;;;;;;;;;9.00;8.00;;;;;21.74;44.14;101061.88;4997052;28;45659;-55
2023/06/01 00:21:42;;;;;;;;;10.33;9.67;;;;;21.69;44.52;101058.69;4997162;28;45391;-54
2023/06/01 00:24:08;;;;;;;;;9.33;7.67;;;;;21.65;44.60;101055.34;4996855;28;45464;-57
2023/06/01 00:26:33;;;;;;;;;8.00;8.00;;;;;21.59;44.87;101056.69;4997098;28;45361;-56
2023/06/01 00:28:59;;;;;;;;;9.00;8.00;;;;;21.49;45.36;101046.75;4996561;28;45379;-56
2023/06/01 00:31:25;;;;;;;;;9.33;9.00;;;;;21.46;45.75;101053.19;4978860;28;45704;-53
2023/06/01 00:33:50;;;;;;;;;10.00;8.33;;;;;21.45;45.68;101047.97;4996706;28;45435;-57
2023/06/01 00:36:16;;;;;;;;;6.25;6.25;;;;;21.40;45.58;101049.16;4997090;28;45451;-56
2023/06/01 00:38:41;;;;;;;;;10.00;8.67;;;;;21.42;45.52;101054.41;4995493;28;45482;-57
2023/06/01 00:41:06;;;;;;;;;8.00;7.67;;;;;21.42;46.06;101057.09;4996232;28;51227;-56
2023/06/01 00:43:32;;;;;;;;;10.00;8.33;;;;;21.40;45.98;101051.84;4996818;28;45461;-54
2023/06/01 00:45:57;;;;;;;;;10.00;9.33;;;;;21.42;45.85;101056.25;4996384;28;46150;-56
2023/06/01 00:48:23;;;;;;;;;7.75;6.00;;;;;21.43;46.19;101047.22;4996607;28;46097;-55
2023/06/01 00:50:49;;;;;;;;;7.67;7.67;;;;;21.47;46.26;101054.06;4996654;28;45527;-58
2023/06/01 00:53:17;;;;;;;;;10.00;9.33;;;;;21.38;46.43;101055.59;4996581;28;45499;-57
2023/06/01 00:55:43;;;;;;;;;14.00;11.33;;;;;21.37;46.36;101053.84;4996383;28;45321;-51
2023/06/01 00:58:09;;;;;;;;;10.00;10.00;;;;;21.31;46.72;101048.97;4996458;28;46257;-56
2023/06/01 01:00:37;;;;;;;;;9.00;8.33;;;;;21.32;46.97;101058.69;4996996;28;45380;-55
2023/06/01 01:03:07;;;;;;;;;10.00;10.00;;;;;21.33;46.66;101055.03;4996272;28;45503;-56
2023/06/01 01:05:33;;;;;;;;;10.00;10.00;;;;;21.33;46.87;101063.94;4996466;28;45565;-54
2023/06/01 01:08:18;;;;;;;;;8.33;8.33;;;;;21.35;47.12;101066.47;4996021;28;45495;-57
2023/06/01 01:10:52;;;;;;;;;11.00;9.33;;;;;21.38;47.38;101063.63;4978404;28;45450;-55
2023/06/01 01:13:20;;;;;;;;;13.00;12.00;;;;;21.33;47.19;101058.59;4996080;28;45416;-54
2023/06/01 01:16:07;;;;;;;;;8.67;8.67;;;;;21.27;47.71;101063.53;4996224;28;45562;-51
2023/06/01 01:18:45;;;;;;;;;12.33;11.67;;;;;21.27;47.82;101066.19;4995762;28;46312;-54
2023/06/01 01:21:27;;;;;;;;;9.33;9.33;;;;;21.22;48.15;101058.50;4978357;28;45407;-55
2023/06/01 01:24:34;;;;;;;;;12.67;10.33;;;;;21.24;48.09;101064.59;4995942;28;45630;-51
2023/06/01 01:27:37;;;;;;;;;13.67;12.67;;;;;21.19;48.49;101072.09;4996249;28;45393;-55
2023/06/01 01:30:05;;;;;;;;;12.00;12.00;;;;;21.11;48.66;101067.28;4977070;28;46563;-56
2023/06/01 01:32:31;;;;;;;;;13.67;13.33;;;;;21.09;48.99;101071.94;4995476;28;45371;-55
2023/06/01 01:34:59;;;;;;;;;13.00;12.00;;;;;21.01;49.36;101058.25;4995955;28;45496;-52
2023/06/01 01:37:25;;;;;;;;;12.00;12.00;;;;;21.05;49.70;101066.91;4995782;28;45690;-57
2023/06/01 01:39:50;;;;;;;;;10.33;10.33;;;;;21.05;49.42;101061.56;4995704;28;45409;-58
2023/06/01 01:42:16;;;;;;;;;11.00;11.00;;;;;21.05;49.39;101053.53;4995904;28;45487;-55
2023/06/01 01:44:41;;;;;;;;;10.33;10.33;;;;;21.01;49.47;101057.38;4995539;28;45879;-55
2023/06/01 01:47:23;;;;;;;;;9.67;9.33;;;;;21.07;49.39;101067.66;4995514;28;45497;-54
2023/06/01 01:49:55;;;;;;;;;13.33;13.33;;;;;21.00;49.54;101061.88;4995139;28;46628;-53
2023/06/01 01:52:26;;;;;;;;;12.67;12.00;;;;;20.83;50.13;101039.03;4995712;28;45459;-56
2023/06/01 01:54:53;;;;;;;;;12.33;11.33;;;;;20.92;49.97;101061.56;4995561;28;45523;-56
2023/06/01 01:57:19;;;;;;;;;14.67;14.33;;;;;20.90;50.72;101066.16;4995734;28;45453;-58
2023/06/01 01:59:49;;;;;;;;;11.00;11.00;;;;;20.85;50.92;101069.19;4994885;28;45460;-57
2023/06/01 02:02:15;;;;;;;;;17.67;17.00;;;;;20.80;51.02;101059.78;4996076;28;45386;-54
2023/06/01 02:04:45;;;;;;;;;14.33;14.33;;;;;20.77;50.83;101066.19;4995134;28;45425;-55
2023/06/01 02:07:11;;;;;;;;;21.00;18.33;;;;;20.70;51.33;101059.56;4978036;28;45590;-52
2023/06/01 02:09:38;;;;;;;;;16.33;14.67;;;;;20.69;51.33;101058.72;4995130;28;46302;-55
2023/06/01 02:12:04;;;;;;;;;16.33;16.33;;;;;20.65;51.43;101059.88;4995345;28;45503;-55
2023/06/01 02:14:29;;;;;;;;;16.33;16.33;;;;;20.58;51.90;101055.94;4995419;28;45385;-53
2023/06/01 02:16:55;;;;;;;;;21.33;20.00;;;;;20.51;52.04;101046.59;4993754;28;45379;-56
2023/06/01 02:19:21;;;;;;;;;20.00;18.33;;;;;20.52;52.32;101054.53;4995157;28;46289;-55
2023/06/01 02:21:47;;;;;;;;;18.00;16.67;;;;;20.45;52.40;101045.22;4994212;28;45467;-55
2023/06/01 02:24:12;;;;;;;;;13.00;13.00;;;;;20.44;52.93;101048.84;4995110;28;45595;-55
2023/06/01 02:26:38;;;;;;;;;19.67;18.67;;;;;20.42;52.30;101050.78;4995399;28;45548;-58
2023/06/01 02:29:05;;;;;;;;;20.67;17.67;;;;;20.39;52.77;101036.75;4995076;28;46244;-53
2023/06/01 02:31:34;;;;;;;;;21.67;18.67;;;;;20.45;52.89;101049.72;4995259;28;45460;-56
2023/06/01 02:34:00;;;;;;;;;21.00;20.67;;;;;20.40;53.28;101052.69;4995192;28;45381;-56
2023/06/01 02:36:28;;;;;;;;;17.00;16.67;;;;;20.35;53.04;101054.84;4995320;28;45497;-52
2023/06/01 02:38:54;;;;;;;;;18.67;18.67;;;;;20.27;52.85;101049.16;4994575;28;45551;-56
2023/06/01 02:41:21;;;;;;;;;22.67;21.00;;;;;20.30;53.14;101048.94;4993831;28;46021;-55
2023/06/01 02:43:47;;;;;;;;;22.33;21.00;;;;;20.25;53.17;101051.09;4994861;28;45479;-55
2023/06/01 02:46:12;;;;;;;;;22.33;21.00;;;;;20.22;53.04;101043.28;4995148;28;45664;-55
2023/06/01 02:48:37;;;;;;;;;22.67;22.67;;;;;20.11;53.70;101028.00;4995130;28;45971;-53
2023/06/01 02:51:03;;;;;;;;;21.00;21.00;;;;;20.18;53.87;101052.47;4994990;28;45476;-53
2023/06/01 02:53:28;;;;;;;;;23.00;23.00;;;;;20.20;53.33;101045.19;4995058;28;45424;-53
2023/06/01 02:55:54;;;;;;;;;34.67;30.67;;;;;20.19;53.64;101044.34;4995067;28;45628;-54
2023/06/01 02:58:20;;;;;;;;;30.33;30.33;;;;;20.13;53.62;101046.59;4994717;28;46379;-53
2023/06/01 03:00:46;;;;;;;;;37.00;33.33;;;;;20.06;53.96;101040.81;4994563;28;45521;-55
2023/06/01 03:03:11;;;;;;;;;2.33;1.33;;;;;20.03;54.10;101043.69;4998361;28;45412;-58
2023/06/01 03:05:37;;;;;;;;;32.00;30.00;;;;;19.99;54.33;101032.38;4998080;28;45575;-57
2023/06/01 03:08:03;;;;;;;;;29.33;24.33;;;;;20.00;54.06;101043.91;4997991;28;45428;-54
2023/06/01 03:10:28;;;;;;;;;29.33;28.67;;;;;19.94;54.27;101037.16;4998341;28;45477;-56
2023/06/01 03:12:54;;;;;;;;;25.67;22.00;;;;;19.88;54.62;101037.59;4998050;28;45432;-58
2023/06/01 03:15:20;;;;;;;;;25.67;24.67;;;;;19.86;54.24;101048.34;4998478;28;45434;-55
2023/06/01 03:17:45;;;;;;;;;23.00;20.00;;;;;19.86;54.94;101051.03;4998085;28;46128;-56
2023/06/01 03:20:17;;;;;;;;;28.33;24.33;;;;;19.79;55.10;101046.19;4997721;28;55278;-54
2023/06/01 03:22:44;;;;;;;;;22.67;21.00;;;;;19.77;54.89;101048.97;4997015;28;45437;-55
2023/06/01 03:25:12;;;;;;;;;20.33;20.33;;;;;19.73;54.83;101050.13;4997664;28;45414;-52
2023/06/01 03:27:38;;;;;;;;;21.33;21.33;;;;;19.68;55.32;101043.38;4997732;28;45376;-57
2023/06/01 03:30:03;;;;;;;;;25.33;24.00;;;;;19.69;55.21;101050.44;4997855;28;45481;-58
2023/06/01 03:32:29;;;;;;;;;23.00;21.33;;;;;19.62;55.15;101045.47;4998142;28;45427;-57
2023/06/01 03:34:55;;;;;;;;;25.33;21.67;;;;;19.64;55.35;101051.56;4997737;28;45565;-53
2023/06/01 03:37:20;;;;;;;;;31.00;24.67;;;;;19.63;55.54;101047.16;4997631;28;45945;-58
2023/06/01 03:39:46;;;;;;;;;29.00;26.00;;;;;19.68;55.44;101054.91;4997724;28;45413;-58
2023/06/01 03:42:11;;;;;;;;;22.67;22.00;;;;;19.67;54.91;101052.38;4997926;28;45454;-55
2023/06/01 03:44:36;;;;;;;;;27.67;27.33;;;;;19.69;55.30;101055.75;4997689;28;45348;-56
2023/06/01 03:47:02;;;;;;;;;24.67;23.67;;;;;19.66;55.95;101059.50;4979890;28;45918;-53
2023/06/01 03:49:27;;;;;;;;;21.67;18.67;;;;;19.60;55.93;101052.72;4997622;28;45382;-56
2023/06/01 03:51:53;;;;;;;;;24.33;24.33;;;;;19.59;55.90;101053.69;4997312;28;49571;-58
2023/06/01 03:54:20;;;;;;;;;24.33;24.33;;;;;19.57;55.86;101052.91;4997544;28;45744;-52
2023/06/01 03:56:46;;;;;;;;;24.00;23.00;;;;;19.58;55.89;101053.78;4996549;28;45660;-53
2023/06/01 03:59:11;;;;;;;;;23.00;21.33;;;;;19.55;55.61;101060.16;4997081;28;45524;-57
2023/06/01 04:01:39;;;;;;;;;25.33;24.33;;;;;19.49;55.37;101049.06;4998140;28;45404;-54
2023/06/01 04:04:08;;;;;;;;;27.67;26.33;;;;;19.54;55.92;101058.47;4997563;28;45453;-53
2023/06/01 04:06:35;;;;;;;;;25.33;24.33;;;;;19.48;56.01;101050.00;4997365;28;45536;-56
2023/06/01 04:09:06;;;;;;;;;26.67;24.67;;;;;19.57;55.72;101060.06;4997093;28;45432;-55
2023/06/01 04:11:33;;;;;;;;;30.67;25.00;;;;;19.52;56.02;101059.53;4997145;28;45533;-58
2023/06/01 04:13:59;;;;;;;;;23.00;23.00;;;;;19.48;56.31;101060.66;4997311;28;45536;-55
2023/06/01 04:16:25;;;;;;;;;24.00;23.00;;;;;19.53;55.67;101062.09;4997002;28;46498;-55
2023/06/01 04:18:51;;;;;;;;;29.67;29.33;;;;;19.45;56.39;101060.88;4996904;28;45563;-57
2023/06/01 04:21:16;;;;;;;;;31.67;29.33;;;;;19.40;56.44;101059.38;4997313;28;45465;-58
2023/06/01 04:23:42;;;;;;;;;28.33;25.00;;;;;19.40;56.14;101062.03;4996856;28;45412;-56
2023/06/01 04:26:07;;;;;;;;;30.67;28.67;;;;;19.41;56.52;101069.06;4996948;28;46561;-55
2023/06/01 04:28:33;;;;;;;;;25.00;25.00;;;;;19.32;56.09;101056.34;4996843;28;45469;-57
2023/06/01 04:30:58;;;;;;;;;26.67;25.00;;;;;19.26;56.39;101055.88;4997165;28;45757;-56
2023/06/01 04:33:24;;;;;;;;;31.00;29.33;;;;;19.25;56.64;101060.34;4996994;28;45389;-56
2023/06/01 04:35:53;;;;;;;;;30.00;27.67;;;;;19.34;56.39;101062.44;4996814;28;45516;-56
2023/06/01 04:38:24;;;;;;;;;29.00;26.67;;;;;19.32;56.61;101074.16;4995588;28;45438;-54
2023/06/01 04:40:53;;;;;;;;;27.33;27.00;;;;;19.37;56.48;101080.03;4996712;28;45317;-55
2023/06/01 04:43:19;;;;;;;;;32.33;30.33;;;;;19.31;56.22;101070.63;4996583;28;46049;-57
2023/06/01 04:45:46;;;;;;;;;28.67;27.67;;;;;19.33;56.40;101082.03;4996673;28;46389;-53
2023/06/01 04:48:12;;;;;;;;;29.67;28.33;;;;;19.32;56.89;101076.84;4996640;28;45459;-55
2023/06/01 04:50:37;;;;;;;;;31.33;29.33;;;;;19.30;56.55;101078.72;4996659;28;45385;-53
2023/06/01 04:53:03;;;;;;;;;31.33;29.33;;;;;19.32;56.72;101088.34;4996904;28;45556;-54
2023/06/01 04:55:30;;;;;;;;;30.67;27.67;;;;;19.33;56.57;101081.19;4996426;28;46666;-55
2023/06/01 04:57:55;;;;;;;;;28.33;28.33;;;;;19.34;56.86;101088.22;4996544;28;45639;-53
2023/06/01 05:00:21;;;;;;;;;27.67;26.67;;;;;19.26;56.76;101083.38;4996610;28;45778;-58
2023/06/01 05:02:48;;;;;;;;;31.00;29.33;;;;;19.31;56.81;101091.09;4996911;28;45504;-55
2023/06/01 05:05:15;;;;;;;;;32.67;29.00;;;;;19.32;56.78;101093.69;4996067;28;46074;-57
2023/06/01 05:07:41;;;;;;;;;28.67;26.33;;;;;19.32;56.23;101084.84;4996293;28;45425;-56
2023/06/01 05:10:08;;;;;;;;;35.00;32.00;;;;;19.38;56.53;101090.63;4996486;28;45381;-54
2023/06/01 05:12:34;;;;;;;;;33.67;30.67;;;;;19.34;56.92;101089.13;4996413;28;45407;-54
2023/06/01 05:15:00;;;;;;;;;32.00;28.00;;;;;19.23;56.59;101074.75;4995903;28;46473;-57
2023/06/01 05:17:26;;;;;;;;;34.00;31.67;;;;;19.29;56.93;101091.22;4996202;28;45583;-52
2023/06/01 05:19:51;;;;;;;;;33.00;31.00;;;;;19.27;56.72;101092.28;4994740;28;45445;-53
2023/06/01 05:22:17;;;;;;;;;39.67;33.33;;;;;19.28;56.52;101092.16;4996338;28;45526;-55
2023/06/01 05:24:42;;;;;;;;;32.33;30.00;;;;;19.26;56.90;101093.19;4995112;28;45954;-55
2023/06/01 05:27:08;;;;;;;;;29.67;27.67;;;;;19.23;57.04;101091.59;4996088;28;45450;-56
2023/06/01 05:29:33;;;;;;;;;31.33;28.67;;;;;19.25;56.85;101102.16;4996220;28;45451;-53
2023/06/01 05:31:58;;;;;;;;;31.00;29.67;;;;;19.25;56.90;101088.84;4995872;28;45481;-56
2023/06/01 05:34:24;;;;;;;;;29.00;29.00;;;;;19.29;56.52;101098.34;4995964;28;46446;-56
2023/06/01 05:36:49;;;;;;;;;31.67;30.67;;;;;19.24;56.67;101087.13;4995993;28;45388;-56
2023/06/01 05:39:15;;;;;;;;;30.00;28.00;;;;;19.35;56.66;101105.97;4995908;28;45555;-54
2023/06/01 05:41:41;;;;;;;;;28.33;28.00;;;;;19.36;56.80;101102.34;4996107;28;45341;-57
2023/06/01 05:44:06;;;;;;;;;33.67;27.67;;;;;19.28;56.93;101102.81;4994990;28;45365;-57
2023/06/01 05:46:32;;;;;;;;;31.00;30.00;;;;;19.26;56.70;101107.38;4995523;28;45408;-54
2023/06/01 05:48:57;;;;;;;;;33.67;31.33;;;;;19.20;56.64;101095.31;4994546;28;45403;-57
2023/06/01 05:51:22;;;;;;;;;31.00;29.67;;;;;19.19;57.30;101108.75;4995933;28;45586;-58
2023/06/01 05:53:48;;;;;;;;;39.00;32.67;;;;;19.17;56.99;101108.00;4995554;28;46033;-56
2023/06/01 05:56:13;;;;;;;;;30.00;28.67;;;;;19.18;56.62;101102.56;4994983;28;57250;-56
2023/06/01 05:58:39;;;;;;;;;32.00;29.00;;;;;19.18;57.10;101107.03;4995720;28;45452;-56
2023/06/01 06:01:04;;;;;;;;;35.67;31.67;;;;;19.16;57.16;101098.28;4996216;28;45401;-55
2023/06/01 06:03:30;;;;;;;;;30.00;28.67;;;;;19.18;57.02;101099.91;4995327;28;45555;-56
2023/06/01 06:05:55;;;;;;;;;32.00;30.00;;;;;19.29;56.30;101109.88;4995266;28;45413;-57
2023/06/01 06:08:21;;;;;;;;;35.33;28.33;;;;;19.33;56.73;101105.19;4995728;28;45489;-54
2023/06/01 06:10:46;;;;;;;;;34.33;30.00;;;;;19.33;56.32;101102.53;4995372;28;45377;-57
2023/06/01 06:13:13;;;;;;;;;30.67;29.33;;;;;19.40;56.62;101106.53;4995197;28;45444;-53
2023/06/01 06:15:39;;;;;;;;;42.67;33.00;;;;;19.44;55.84;101100.03;4995440;28;45484;-53
2023/06/01 06:18:04;;;;;;;;;31.00;28.00;;;;;19.45;56.23;101100.88;4995192;28;45457;-57
2023/06/01 06:20:29;;;;;;;;;32.33;30.33;;;;;19.49;55.61;101097.91;4995356;28;45658;-54
2023/06/01 06:22:55;;;;;;;;;32.33;29.67;;;;;19.58;55.70;101099.97;4994950;28;46400;-53
2023/06/01 06:25:20;;;;;;;;;35.33;33.00;;;;;19.53;55.66;101091.44;4994904;28;45496;-53
2023/06/01 06:27:46;;;;;;;;;33.00;30.67;;;;;19.59;55.95;101099.03;4995474;28;45468;-52
2023/06/01 06:30:12;;;;;;;;;37.33;31.33;;;;;19.56;55.65;101099.25;4995211;28;45413;-57
2023/06/01 06:32:37;;;;;;;;;30.33;28.33;;;;;19.56;55.95;101095.72;4995109;28;46154;-56
2023/06/01 06:35:03;;;;;;;;;32.00;29.33;;;;;19.58;56.05;101096.47;4994986;28;45430;-57
2023/06/01 06:37:30;;;;;;;;;33.67;31.00;;;;;19.59;55.96;101088.38;4997922;28;45453;-54
2023/06/01 06:39:56;;;;;;;;;34.00;30.00;;;;;19.68;55.38;101107.44;4998279;28;45397;-54
2023/06/01 06:42:21;;;;;;;;;32.00;30.00;;;;;19.63;55.60;101102.34;4998326;28;45397;-55
2023/06/01 06:44:47;;;;;;;;;21.67;21.67;;;;;19.59;55.50;101095.53;4998401;28;45342;-57
2023/06/01 06:47:15;;;;;;;;;36.00;31.67;;;;;19.55;55.55;101088.66;4998238;28;45428;-55
2023/06/01 06:49:40;;;;;;;;;29.33;22.67;;;;;19.64;55.33;101090.75;4998361;28;45578;-52
2023/06/01 06:52:08;;;;;;;;;32.00;31.00;;;;;19.71;55.46;101091.22;4997835;28;45455;-55
2023/06/01 06:54:35;;;;;;;;;29.00;27.33;;;;;19.69;54.89;101082.44;4997786;28;45330;-54
2023/06/01 06:57:00;;;;;;;;;29.33;27.67;;;;;19.76;55.04;101094.44;4980462;28;45454;-56
2023/06/01 06:59:25;;;;;;;;;30.67;30.00;;;;;19.75;54.87;101093.59;4997988;28;45547;-56
2023/06/01 07:01:51;;;;;;;;;34.33;32.33;;;;;19.80;54.89;101102.16;4998310;28;57423;-57
2023/06/01 07:04:16;;;;;;;;;33.00;31.00;;;;;19.77;55.00;101097.03;4997892;28;45507;-56
2023/06/01 07:06:42;;;;;;;;;30.00;29.00;;;;;19.75;54.69;101108.75;4997715;28;48131;-57
2023/06/01 07:09:11;;;;;;;;;33.00;30.67;;;;;19.76;54.67;101097.13;4998128;28;45564;-54
2023/06/01 07:11:36;;;;;;;;;34.00;31.67;;;;;19.82;54.64;101092.22;4998058;28;45375;-54
2023/06/01 07:14:01;;;;;;;;;33.33;31.67;;;;;19.85;54.66;101100.03;4997865;28;45438;-56
2023/06/01 07:16:28;;;;;;;;;30.00;27.33;;;;;19.84;54.52;101095.63;4997656;28;51844;-55
2023/06/01 07:18:53;;;;;;;;;32.00;28.00;;;;;19.94;54.53;101098.56;4997941;28;45635;-56
2023/06/01 07:21:19;;;;;;;;;31.67;27.67;;;;;19.93;54.69;101098.66;4997747;28;45365;-56
2023/06/01 07:23:46;;;;;;;;;38.00;33.33;;;;;19.93;54.11;101102.19;4997372;28;45621;-56
2023/06/01 07:26:11;;;;;;;;;35.00;32.67;;;;;19.95;54.41;101092.25;4996876;28;45380;-53
2023/06/01 07:28:37;;;;;;;;;30.67;26.33;;;;;20.08;54.45;101102.97;4996441;28;45441;-54
2023/06/01 07:31:03;;;;;;;;;30.33;30.00;;;;;20.03;53.99;101103.28;4996633;28;46157;-55
2023/06/01 07:33:29;;;;;;;;;31.67;28.33;;;;;20.13;54.11;101108.03;4996749;28;45449;-56
2023/06/01 07:35:56;;;;;;;;;35.00;29.67;;;;;20.17;53.74;101104.16;4996779;28;45357;-55
2023/06/01 07:38:22;;;;;;;;;29.67;28.67;;;;;20.22;53.79;101115.41;4995523;28;45401;-54
2023/06/01 07:40:48;;;;;;;;;33.67;32.33;;;;;20.19;53.63;101103.09;4996465;28;46167;-56
2023/06/01 07:43:14;;;;;;;;;30.00;29.00;;;;;20.24;53.51;101124.16;4995732;28;45521;-56
2023/06/01 07:45:40;;;;;;;;;29.67;28.33;;;;;20.24;53.54;101116.16;4996360;28;45976;-55
2023/06/01 07:48:05;;;;;;;;;31.67;30.67;;;;;20.29;53.68;101132.72;4996047;28;45368;-53
2023/06/01 07:50:31;;;;;;;;;31.67;30.67;;;;;20.27;53.55;101118.63;4996129;28;45486;-56
2023/06/01 07:52:57;;;;;;;;;31.67;28.33;;;;;20.35;53.37;101136.81;4996067;28;45568;-56
2023/06/01 07:55:23;;;;;;;;;31.00;30.00;;;;;20.35;53.75;101136.81;4978625;28;45471;-51
2023/06/01 07:57:48;;;;;;;;;32.33;31.33;;;;;20.36;53.35;101134.00;4996131;28;45425;-56
2023/06/01 08:00:17;;;;;;;;;34.67;31.33;;;;;20.36;53.56;101138.50;4996112;28;46375;-57
2023/06/01 08:02:42;;;;;;;;;29.67;28.00;;;;;20.34;53.74;101132.41;4996558;28;45548;-57
2023/06/01 08:05:09;;;;;;;;;25.67;24.67;;;;;20.37;53.53;101138.41;4995981;28;45449;-53
2023/06/01 08:07:35;;;;;;;;;31.67;30.00;;;;;20.39;53.51;101125.81;4996077;28;45515;-53
2023/06/01 08:10:01;;;;;;;;;24.67;24.67;;;;;20.36;53.36;101117.13;4995550;28;46009;-56
2023/06/01 08:12:26;;;;;;;;;34.33;30.00;;;;;20.36;53.53;101122.47;4995999;28;45471;-54
2023/06/01 08:14:52;;;;;;;;;30.00;25.67;;;;;20.46;53.41;101135.09;4977946;28;45475;-54
2023/06/01 08:17:18;;;;;;;;;31.00;28.67;;;;;20.50;53.67;101125.94;4995509;28;55329;-55
2023/06/01 08:19:44;;;;;;;;;27.00;23.33;;;;;20.55;53.43;101125.63;4995782;28;45607;-55
2023/06/01 08:22:11;;;;;;;;;27.33;27.33;;;;;20.56;53.04;101121.16;4995787;28;45437;-57
2023/06/01 08:24:37;;;;;;;;;31.33;29.00;;;;;20.55;53.24;101117.59;4954372;28;1195940;-56
2023/06/01 08:27:15;;;;;;;;;31.00;28.67;;;;;20.60;53.35;101123.50;4996968;28;45378;-55
2023/06/01 08:29:40;;;;;;;;;25.67;25.67;;;;;20.66;53.09;101124.88;4996691;28;46423;-55
2023/06/01 08:32:05;;;;;;;;;29.33;29.33;;;;;20.64;53.08;101122.34;4995479;28;59621;-57
2023/06/01 08:34:30;;;;;;;;;34.67;31.67;;;;;20.69;53.03;101124.69;4997047;28;45934;-56
2023/06/01 08:36:56;;;;;;;;;25.33;25.00;;;;;20.75;53.15;101124.25;4996620;28;45570;-55
2023/06/01 08:39:22;;;;;;;;;25.67;24.33;;;;;20.68;53.06;101109.59;4996603;28;46057;-53
2023/06/01 08:42:07;;;;;;;;;27.00;25.67;;;;;20.72;52.69;101119.13;4996744;28;45495;-54
2023/06/01 08:44:37;;;;;;;;;25.33;20.67;;;;;20.82;52.84;101120.22;4996699;28;45531;-57
2023/06/01 08:47:03;;;;;;;;;28.33;27.33;;;;;20.83;52.46;101121.06;4996764;28;45373;-55
2023/06/01 08:49:30;;;;;;;;;27.33;25.00;;;;;20.89;52.33;101128.63;4995707;28;45368;-55
2023/06/01 08:51:57;;;;;;;;;29.33;28.33;;;;;20.87;52.39;101114.50;4996384;28;45397;-53
2023/06/01 08:54:22;;;;;;;;;29.33;24.67;;;;;20.89;52.39;101118.78;4996216;28;45508;-56
2023/06/01 08:56:48;;;;;;;;;27.67;25.33;;;;;20.91;52.56;101116.88;4995013;28;45402;-53
2023/06/01 08:59:13;;;;;;;;;26.00;24.67;;;;;20.95;52.25;101106.81;4995257;28;46287;-56
2023/06/01 09:01:39;;;;;;;;;25.67;24.33;;;;;21.04;52.35;101113.34;4996924;28;45428;-53
2023/06/01 09:04:04;;;;;;;;;24.67;24.67;;;;;21.06;51.88;101114.06;4996525;28;45436;-55
2023/06/01 09:06:30;;;;;;;;;23.33;20.67;;;;;21.11;52.23;101118.13;4996416;28;45516;-58
2023/06/01 09:08:56;;;;;;;;;25.67;24.67;;;;;21.13;52.39;101108.16;4996100;28;46156;-55
2023/06/01 09:11:22;;;;;;;;;25.00;24.00;;;;;21.23;51.83;101115.56;4996068;28;45473;-56
2023/06/01 09:13:47;;;;;;;;;23.33;22.67;;;;;21.17;52.00;101093.63;4996182;28;45489;-55
2023/06/01 09:16:13;;;;;;;;;23.67;23.67;;;;;21.29;51.92;101107.06;4995771;28;45425;-54
2023/06/01 09:18:53;;;;;;;;;23.67;23.00;;;;;21.36;51.94;101111.03;4995907;28;45405;-55
2023/06/01 09:21:19;;;;;;;;;26.00;23.67;;;;;21.39;51.78;101102.81;4996010;28;45519;-58
2023/06/01 09:23:45;;;;;;;;;26.33;26.33;;;;;21.40;51.47;101097.31;4995801;28;45474;-57
2023/06/01 09:26:12;;;;;;;;;29.00;26.00;;;;;21.37;51.57;101089.53;4996010;28;45433;-55
2023/06/01 09:28:55;;;;;;;;;25.33;24.00;;;;;21.47;51.29;101105.78;4995781;28;45440;-56
2023/06/01 09:31:46;;;;;;;;;26.00;25.67;;;;;21.50;51.37;101099.34;4995904;28;45448;-55
2023/06/01 09:34:18;;;;;;;;;24.33;22.00;;;;;21.46;51.37;101097.84;4978102;28;45444;-56
2023/06/01 09:36:51;;;;;;;;;25.00;22.33;;;;;21.46;50.95;101088.00;4995886;28;45497;-55
2023/06/01 09:39:19;;;;;;;;;26.33;25.00;;;;;21.49;51.66;101082.41;4995526;28;45425;-56
2023/06/01 09:41:58;;;;;;;;;23.67;23.67;;;;;21.53;51.14;101080.38;4995820;28;45330;-57
2023/06/01 09:44:30;;;;;;;;;24.67;23.00;;;;;21.57;50.79;101087.19;4995539;28;45453;-56
2023/06/01 09:47:03;;;;;;;;;29.33;25.00;;;;;21.62;51.20;101085.03;4995909;28;45484;-54
2023/06/01 09:49:36;;;;;;;;;24.00;23.33;;;;;21.68;51.18;101087.28;4995669;28;45506;-56
2023/06/01 09:52:04;;;;;;;;;27.67;26.33;;;;;21.73;51.17;101087.78;4995483;28;45536;-58
2023/06/01 09:54:32;;;;;;;;;24.67;24.33;;;;;21.77;50.58;101083.91;4994259;28;45544;-55
2023/06/01 09:56:59;;;;;;;;;27.67;26.33;;;;;21.80;50.24;101082.81;4995536;28;45499;-54
2023/06/01 09:59:28;;;;;;;;;25.67;24.67;;;;;21.79;50.37;101075.78;4995235;28;46749;-53
2023/06/01 10:01:55;;;;;;;;;26.00;25.00;;;;;21.88;50.23;101087.59;4996082;28;45421;-56
2023/06/01 10:04:26;;;;;;;;;23.67;22.33;;;;;21.90;50.03;101081.16;4995275;28;45367;-55
2023/06/01 10:06:53;;;;;;;;;26.00;25.00;;;;;21.95;50.19;101076.31;4995222;28;45506;-54
2023/06/01 10:09:20;;;;;;;;;21.33;21.00;;;;;22.04;50.02;101078.28;4994962;28;45997;-56
2023/06/01 10:11:48;;;;;;;;;24.00;24.00;;;;;22.02;49.76;101061.47;4995136;28;45491;-55
2023/06/01 10:14:14;;;;;;;;;24.00;21.00;;;;;22.14;50.03;101077.56;4995248;28;45450;-54
2023/06/01 10:16:40;;;;;;;;;23.67;22.00;;;;;22.18;49.72;101071.91;4994902;28;45479;-54
2023/06/01 10:19:07;;;;;;;;;23.00;23.00;;;;;22.19;49.82;101070.06;4994852;28;46508;-55
2023/06/01 10:21:33;;;;;;;;;27.00;24.67;;;;;22.18;49.83;101061.19;4994912;28;45525;-54
2023/06/01 10:23:59;;;;;;;;;30.00;25.33;;;;;22.27;50.05;101070.34;4995056;28;45516;-57
2023/06/01 10:26:27;;;;;;;;;26.67;25.33;;;;;22.34;49.67;101070.75;4994524;28;45433;-55
2023/06/01 10:28:55;;;;;;;;;21.67;21.33;;;;;22.39;49.47;101071.25;4994564;28;45564;-57
2023/06/01 10:31:37;;;;;;;;;25.00;22.33;;;;;22.38;49.20;101056.09;4994106;28;45354;-56
2023/06/01 10:34:04;;;;;;;;;22.67;21.67;;;;;22.46;48.95;101061.72;4994366;28;45453;-54
2023/06/01 10:36:51;;;;;;;;;21.00;20.00;;;;;22.53;49.02;101068.31;4994113;28;45440;-55
2023/06/01 10:39:27;;;;;;;;;25.33;25.33;;;;;22.49;48.82;101057.00;4994032;28;45475;-57
2023/06/01 10:41:57;;;;;;;;;21.00;21.00;;;;;22.54;49.16;101056.66;4993960;28;45340;-55
2023/06/01 10:44:49;;;;;;;;;23.00;22.67;;;;;22.60;48.45;101061.53;4994008;28;45647;-57
2023/06/01 10:47:17;;;;;;;;;22.67;22.00;;;;;22.65;48.47;101053.13;4990582;28;45424;-55
2023/06/01 10:49:49;;;;;;;;;22.67;20.67;;;;;22.68;48.63;101048.34;4993974;28;45595;-56
2023/06/01 10:52:34;;;;;;;;;23.00;22.33;;;;;22.75;48.06;101055.91;4992922;28;45357;-56
2023/06/01 10:55:05;;;;;;;;;21.33;20.33;;;;;22.82;47.14;101059.81;4993972;28;45469;-51
2023/06/01 10:57:31;;;;;;;;;20.00;19.00;;;;;22.83;47.37;101051.63;4992464;28;45558;-58
2023/06/01 11:00:26;;;;;;;;;19.33;19.33;;;;;22.90;46.76;101052.88;4993949;28;45449;-58
2023/06/01 11:02:57;;;;;;;;;22.33;20.33;;;;;22.94;46.87;101054.34;4994869;28;45473;-54
2023/06/01 11:05:46;;;;;;;;;25.33;25.33;;;;;23.00;46.71;101052.13;4994257;28;45454;-58
2023/06/01 11:08:21;;;;;;;;;23.33;21.33;;;;;23.05;46.44;101050.81;4993856;28;45686;-56
2023/06/01 11:10:53;;;;;;;;;22.00;19.00;;;;;23.08;46.80;101042.53;4993736;28;46337;-52
2023/06/01 11:13:18;;;;;;;;;19.00;18.00;;;;;23.13;47.19;101043.00;4993844;28;45374;-56
2023/06/01 11:16:22;;;;;;;;;22.67;20.67;;;;;23.18;46.33;101036.41;4993939;28;45412;-56